Mount Holly, Virginia
Current Conditions -  °F | °C
As of 12:53 AM on Wednesday 22 Oct 2014 (Local Time) from KNUI Reporting Station
Broken Clouds Broken Clouds  
Wind Chill: 56°   Ceiling: 1000
Heat Index: 56°   Visibility: 10mi
Dew Point: 50°   Wind: 5mph
Humidity: 80%   Direction: NA
Pressure: 29.84"   Gusts: NA
Location:  38.09°N, 76.72°W
Report Text: KNUI 220453Z AUTO VRB04KT 10SM BKN010 BKN017 BKN120 13/10 A2984 RMK AO2 SLP105 T01330100 402170128
Loading
Personal Weather Stations






























Interactive Weather Map
Tropical Storm Tracking
New forecast layout! Learn more

10-Day Weather Forecast

Advertisements
Track Severe Weather on mobile